Hovedside
METAR-TAF:

METAR-TAF

Lufthavner :

Odessa, Ukraina

breddegrad: 46-26N, lengdegrad: 030-46E, høyde over havet: 42 m

Gjeldene værobservasjon

Denne rapporten ble laget for 20 minutter siden, klokken 10:00 UTC
Vind 8 kt fra Øst-nordøst, skiftende mellom Nord-nordvest og Øst
Temperatur 23°C
Luftfuktighet 31%
Trykk 1021 hPa
Sikt 10 km eller mer
ingen skyer under 1500 m og ingen bygeskyer

METAR: UKOO 201000Z 06004MPS 340V100 CAVOK 23/05 Q1021 R34/090060 NOSIG

Tid: 13:20 (10:20 UTC)

Varsel

Denne rapporten ble laget for 5 timer og 15 minutter siden, klokken 05:05 UTC
Varsel gyldig fra 20. klokken 06 UTC til 21. klokken 06 UTC
Vind 6 kt fra Nord-nordøst
Sikt 10 km eller mer
ingen skyer under 1500 m og ingen bygeskyer
Blir
fra 20. klokken 21 UTC til 20. klokken 22 UTC
Vind 6 kt fra Øst

TAF: UKOO 200505Z 2006/2106 02003MPS CAVOK BECMG 2021/2022 08003MPS

Værobservasjoner og værvarsel for over 4000 flyplasser (METAR- og TAF-rapporter).

Tilgjengelige stasjoner er representert av de røde og gule prikkene på kartet.

Hold musepekeren over prikken for å se navnet på stasjonen.

Klikk så for å se værobservasjoner og -varsler.

For å forandre kartet kan du klikke på den grønne knappen med svart kryss for å zoome inn, på den grønne knappen med strek for å zoome ut, eller på de grønne pilene for å se tilstøtende kart.


METAR-TAF: